Time;durP1;ratioP1;P1;durP2;ratioP2;P2;SDS_P1;SDS_P2;PMS_P1;PMS_P2;Temp;Humidity;BMP_temperature;BMP_pressure;BME280_temperature;BME280_humidity;BME280_pressure;Samples;Min_cycle;Max_cycle;Signal;HPM_P1;HPM_P2
2021/10/18 00:01:50;;;;;;;0.10;0.10;;;;;;;9.47;86.09;102178.13;10373635;28;20030;-69
2021/10/18 00:06:51;;;;;;;0.10;0.10;;;;;;;9.44;86.92;102180.16;10373386;28;20455;-69
2021/10/18 00:11:51;;;;;;;0.00;0.00;;;;;;;9.43;85.95;102184.66;10373307;28;20021;-69
2021/10/18 00:16:52;;;;;;;0.10;0.10;;;;;;;9.47;86.05;102183.44;10373090;28;20265;-69
2021/10/18 00:21:52;;;;;;;0.10;0.10;;;;;;;9.48;84.82;102189.59;10371524;28;20022;-68
2021/10/18 00:26:52;;;;;;;0.00;0.00;;;;;;;9.48;85.32;102186.94;10372732;28;20444;-68
2021/10/18 00:31:52;;;;;;;0.00;0.00;;;;;;;9.48;85.36;102198.44;10372559;28;20022;-68
2021/10/18 00:36:53;;;;;;;0.10;0.10;;;;;;;9.48;85.33;102197.56;10372698;28;20021;-68
2021/10/18 00:41:53;;;;;;;0.10;0.10;;;;;;;9.44;84.97;102194.31;10371789;28;20323;-68
2021/10/18 00:46:54;;;;;;;0.10;0.10;;;;;;;9.44;85.12;102202.28;10371948;28;20025;-69
2021/10/18 00:51:55;;;;;;;0.00;0.00;;;;;;;9.44;84.89;102198.78;10370102;28;20026;-69
2021/10/18 00:56:56;;;;;;;0.10;0.10;;;;;;;9.42;85.49;102201.53;10371527;28;20029;-69
2021/10/18 01:01:56;;;;;;;0.10;0.10;;;;;;;9.38;85.32;102202.75;10371447;28;20473;-69
2021/10/18 01:06:58;;;;;;;0.10;0.10;;;;;;;9.35;85.36;102205.66;10384336;22;20380;-68
2021/10/18 01:11:58;;;;;;;0.10;0.10;;;;;;;9.29;85.70;102201.66;10369645;28;20064;-69
2021/10/18 01:16:58;;;;;;;0.00;0.00;;;;;;;9.27;85.80;102192.94;10370244;28;20033;-69
2021/10/18 01:22:02;;;;;;;0.10;0.10;;;;;;;9.22;85.85;102199.56;10369324;28;20802;-69
2021/10/18 01:27:04;;;;;;;0.00;0.00;;;;;;;9.17;86.01;102196.44;10369130;28;20025;-69
2021/10/18 01:32:06;;;;;;;0.10;0.10;;;;;;;9.11;86.42;102195.09;10367545;28;20121;-69
2021/10/18 01:37:06;;;;;;;0.10;0.10;;;;;;;9.09;86.76;102196.16;10369049;28;20033;-69
2021/10/18 01:42:07;;;;;;;0.00;0.00;;;;;;;9.07;86.56;102198.91;10368379;28;20029;-69
2021/10/18 01:47:07;;;;;;;0.00;0.00;;;;;;;9.06;86.31;102199.91;10368772;28;20040;-69
2021/10/18 01:52:07;;;;;;;0.03;0.03;;;;;;;9.05;86.90;102184.91;10367664;28;20264;-69
2021/10/18 01:57:08;;;;;;;0.10;0.10;;;;;;;9.03;86.60;102192.16;10368317;28;20273;-69
2021/10/18 02:02:08;;;;;;;0.00;0.00;;;;;;;9.00;87.18;102195.03;10368245;28;20034;-69
2021/10/18 02:07:08;;;;;;;0.10;0.10;;;;;;;8.93;87.47;102189.34;10367283;28;20477;-69
2021/10/18 02:12:09;;;;;;;0.10;0.10;;;;;;;8.86;88.35;102182.78;10367763;28;20408;-69
2021/10/18 02:17:09;;;;;;;0.00;0.00;;;;;;;8.82;88.86;102181.34;10367194;28;20034;-70
2021/10/18 02:22:09;;;;;;;0.10;0.10;;;;;;;8.77;89.31;102176.34;10367290;28;20033;-69
2021/10/18 02:27:10;;;;;;;0.00;0.00;;;;;;;8.77;89.77;102173.69;10367341;28;20261;-70
2021/10/18 02:32:10;;;;;;;0.03;0.03;;;;;;;8.80;89.30;102177.94;10367084;28;20097;-69
2021/10/18 02:37:11;;;;;;;0.00;0.00;;;;;;;8.80;89.47;102176.13;10366956;28;20049;-69
2021/10/18 02:42:11;;;;;;;0.00;0.00;;;;;;;8.87;90.05;102181.81;10366136;28;20022;-70
2021/10/18 02:47:11;;;;;;;0.03;0.03;;;;;;;8.89;89.90;102184.38;10367238;28;20389;-69
2021/10/18 02:52:12;;;;;;;0.10;0.10;;;;;;;8.89;89.83;102185.22;10367252;28;20281;-70
2021/10/18 02:57:12;;;;;;;0.00;0.00;;;;;;;8.90;89.69;102189.59;10366966;28;20273;-70
2021/10/18 03:02:12;;;;;;;0.00;0.00;;;;;;;8.93;89.11;102192.00;10366743;28;20373;-69
2021/10/18 03:07:13;;;;;;;0.08;0.08;;;;;;;8.99;88.91;102188.03;10366597;28;20424;-69
2021/10/18 03:12:13;;;;;;;0.00;0.00;;;;;;;9.03;87.97;102185.03;10366215;28;20030;-69
2021/10/18 03:17:13;;;;;;;0.10;0.10;;;;;;;9.10;87.79;102185.41;10369754;28;20024;-69
2021/10/18 03:22:14;;;;;;;0.05;0.05;;;;;;;9.18;87.47;102190.97;10374143;28;20361;-69
2021/10/18 03:27:14;;;;;;;0.00;0.00;;;;;;;9.23;87.52;102186.16;10373634;28;20026;-70
2021/10/18 03:32:15;;;;;;;0.10;0.10;;;;;;;9.26;86.90;102183.28;10373402;28;20068;-69
2021/10/18 03:37:15;;;;;;;0.10;0.10;;;;;;;9.32;86.46;102189.94;10373236;28;20033;-69
2021/10/18 03:42:15;;;;;;;0.10;0.10;;;;;;;9.34;86.62;102190.69;10372921;28;20029;-70
2021/10/18 03:47:16;;;;;;;0.10;0.10;;;;;;;9.34;86.07;102188.03;10371279;28;20046;-69
2021/10/18 03:52:18;;;;;;;0.08;0.08;;;;;;;9.35;86.66;102207.47;10372707;28;20026;-70
2021/10/18 03:57:18;;;;;;;0.10;0.10;;;;;;;9.33;86.42;102199.59;10371014;28;20025;-69
2021/10/18 04:02:18;;;;;;;0.10;0.10;;;;;;;9.36;86.26;102193.19;10372469;28;20033;-69
2021/10/18 04:07:19;;;;;;;0.10;0.10;;;;;;;9.39;86.98;102204.44;10372484;28;20029;-69
2021/10/18 04:12:19;;;;;;;0.10;0.10;;;;;;;9.37;86.64;102194.91;10371929;28;20033;-69
2021/10/18 04:17:19;;;;;;;0.08;0.08;;;;;;;9.36;86.48;102196.69;10370359;28;20026;-69
2021/10/18 04:22:20;;;;;;;0.10;0.10;;;;;;;9.36;87.04;102209.16;10371553;28;20052;-69
2021/10/18 04:27:20;;;;;;;0.00;0.00;;;;;;;9.36;86.74;102203.84;10370977;28;20030;-69
2021/10/18 04:32:20;;;;;;;0.07;0.07;;;;;;;9.36;86.61;102209.16;10371116;28;20029;-69
2021/10/18 04:37:21;;;;;;;0.10;0.10;;;;;;;9.35;86.59;102216.28;10370930;28;20022;-70
2021/10/18 04:42:21;;;;;;;0.00;0.00;;;;;;;9.32;86.52;102218.34;10370940;28;20288;-70
2021/10/18 04:47:21;;;;;;;0.00;0.00;;;;;;;9.29;86.67;102214.09;10370465;28;20292;-70
2021/10/18 04:52:22;;;;;;;0.10;0.10;;;;;;;9.27;86.11;102218.69;10371721;28;20026;-70
2021/10/18 04:57:22;;;;;;;0.10;0.10;;;;;;;9.25;86.45;102223.25;10370243;28;20026;-70
2021/10/18 05:02:22;;;;;;;0.08;0.08;;;;;;;9.24;86.93;102222.41;10370513;28;20022;-70
2021/10/18 05:07:23;;;;;;;0.03;0.03;;;;;;;9.25;86.80;102225.91;10369543;28;20111;-69
2021/10/18 05:12:23;;;;;;;0.10;0.10;;;;;;;9.26;86.46;102238.28;10368333;28;20257;-70
2021/10/18 05:17:23;;;;;;;0.00;0.00;;;;;;;9.26;87.07;102224.97;10370479;28;20532;-70
2021/10/18 05:22:24;;;;;;;0.00;0.00;;;;;;;9.24;87.29;102238.38;10369908;28;20054;-69
2021/10/18 05:27:24;;;;;;;0.10;0.10;;;;;;;9.22;86.99;102227.03;10369614;28;20475;-69
2021/10/18 05:32:25;;;;;;;0.10;0.10;;;;;;;9.21;87.49;102237.75;10369436;28;20736;-69
2021/10/18 05:37:25;;;;;;;0.00;0.00;;;;;;;9.19;87.21;102235.25;10367615;28;20053;-69
2021/10/18 05:42:25;;;;;;;0.00;0.00;;;;;;;9.18;87.29;102243.31;10368082;28;20030;-69
2021/10/18 05:47:26;;;;;;;0.00;0.00;;;;;;;9.17;86.45;102245.13;10368271;28;20269;-70
2021/10/18 05:52:28;;;;;;;0.00;0.00;;;;;;;9.22;86.52;102255.41;10368225;28;20396;-70
2021/10/18 05:57:28;;;;;;;0.00;0.00;;;;;;;9.24;87.00;102253.47;10367917;28;20026;-69
2021/10/18 06:02:28;;;;;;;0.10;0.10;;;;;;;9.27;86.53;102263.88;10367757;28;20044;-70
2021/10/18 06:07:28;;;;;;;0.08;0.08;;;;;;;9.36;86.32;102272.97;10367123;28;20033;-69
2021/10/18 06:12:29;;;;;;;0.10;0.10;;;;;;;9.38;86.16;102279.03;10367145;28;20018;-70
2021/10/18 06:17:29;;;;;;;0.10;0.10;;;;;;;9.42;86.38;102276.00;10367144;28;20028;-70
2021/10/18 06:22:30;;;;;;;0.10;0.10;;;;;;;9.46;86.68;102280.16;10366390;28;20044;-69
2021/10/18 06:27:31;;;;;;;0.10;0.10;;;;;;;9.55;85.84;102288.41;10366602;28;20029;-70
2021/10/18 06:32:32;;;;;;;0.00;0.00;;;;;;;9.60;85.61;102278.25;10366753;28;20022;-69
2021/10/18 06:37:33;;;;;;;0.00;0.00;;;;;;;9.66;84.59;102283.13;10366922;28;20030;-70
2021/10/18 06:42:33;;;;;;;0.00;0.00;;;;;;;9.75;85.11;102288.56;10366721;28;20025;-70
2021/10/18 06:47:33;;;;;;;0.00;0.00;;;;;;;9.92;85.66;102300.59;10366646;28;20172;-70
2021/10/18 06:52:37;;;;;;;0.00;0.00;;;;;;;10.15;83.69;102287.25;10372626;28;20052;-69
2021/10/18 06:57:38;;;;;;;0.08;0.08;;;;;;;10.42;82.69;102309.09;10374980;28;20109;-68
2021/10/18 07:02:38;;;;;;;0.10;0.10;;;;;;;10.60;82.75;102308.59;10372859;28;20028;-69
2021/10/18 07:07:39;;;;;;;0.08;0.08;;;;;;;10.71;82.10;102315.75;10367938;22;20047;-71
2021/10/18 07:12:39;;;;;;;0.10;0.10;;;;;;;10.71;82.23;102307.75;10337584;28;20073;-72
2021/10/18 07:17:39;;;;;;;0.10;0.10;;;;;;;10.68;82.90;102311.50;10331648;28;20340;-71
2021/10/18 07:22:48;;;;;;;0.10;0.10;;;;;;;10.67;81.62;102324.94;10330740;28;20076;-71
2021/10/18 07:27:48;;;;;;;0.08;0.08;;;;;;;10.68;82.64;102318.66;10330012;28;20783;-71
2021/10/18 07:32:48;;;;;;;0.10;0.10;;;;;;;10.78;81.98;102332.91;10325820;28;20109;-71
2021/10/18 07:37:54;;;;;;;0.00;0.00;;;;;;;10.85;82.67;102339.47;10329253;28;20460;-71
2021/10/18 07:42:55;;;;;;;0.10;0.10;;;;;;;11.00;80.31;102332.03;10331698;28;20033;-72
2021/10/18 07:47:55;;;;;;;0.10;0.10;;;;;;;11.14;80.34;102336.22;10330489;28;20182;-71
2021/10/18 07:52:56;;;;;;;0.10;0.10;;;;;;;11.22;79.07;102334.63;10331293;28;20097;-71
2021/10/18 07:57:59;;;;;;;0.00;0.00;;;;;;;11.29;79.61;102342.97;10329918;28;20036;-71
2021/10/18 08:02:59;;;;;;;0.10;0.10;;;;;;;11.31;79.75;102341.88;10329936;28;20050;-72
2021/10/18 08:08:00;;;;;;;0.10;0.10;;;;;;;11.31;80.27;102341.88;10327147;28;20073;-73
2021/10/18 08:13:01;;;;;;;0.00;0.00;;;;;;;11.29;79.36;102348.31;10327195;28;20288;-71
2021/10/18 08:18:01;;;;;;;0.10;0.10;;;;;;;11.28;80.20;102352.78;10304872;28;20474;-71
2021/10/18 08:23:01;;;;;;;0.00;0.00;;;;;;;11.27;80.29;102353.75;10289782;28;20034;-71
2021/10/18 08:28:02;;;;;;;0.10;0.10;;;;;;;11.30;79.75;102358.00;10305877;28;20030;-71
2021/10/18 08:33:02;;;;;;;0.10;0.10;;;;;;;11.31;78.63;102357.88;10329708;28;20018;-71
2021/10/18 08:48:26;;;;;;;0.00;0.00;;;;;;;11.47;79.38;102373.47;10288850;28;20359;-72
2021/10/18 08:53:26;;;;;;;0.10;0.10;;;;;;;11.63;79.66;102388.19;10289313;28;20097;-71
2021/10/18 08:58:27;;;;;;;0.10;0.10;;;;;;;11.72;78.87;102376.75;10327252;28;20485;-72
2021/10/18 09:03:31;;;;;;;0.10;0.10;;;;;;;11.83;78.41;102378.50;10328873;28;20388;-71
2021/10/18 09:08:33;;;;;;;0.10;0.10;;;;;;;11.92;78.90;102369.75;10326027;28;20060;-72
2021/10/18 09:13:35;;;;;;;0.10;0.10;;;;;;;12.06;80.11;102371.25;10327436;28;20041;-72
2021/10/18 09:18:35;;;;;;;0.10;0.10;;;;;;;12.18;78.26;102376.38;10325092;28;20089;-72
2021/10/18 09:23:40;;;;;;;0.10;0.10;;;;;;;12.32;77.60;102374.34;10311776;28;20068;-72
2021/10/18 09:28:40;;;;;;;0.10;0.10;;;;;;;12.50;78.01;102375.41;10286931;28;20069;-72
2021/10/18 09:33:44;;;;;;;0.08;0.08;;;;;;;12.66;76.86;102382.97;10327246;28;20080;-72
2021/10/18 09:38:44;;;;;;;0.10;0.10;;;;;;;12.78;76.53;102376.53;10325516;28;20014;-72
2021/10/18 09:43:57;;;;;;;0.10;0.10;;;;;;;12.89;74.97;102375.59;10325923;28;20057;-72
2021/10/18 10:54:03;;;;;;;0.10;0.10;;;;;;;14.18;71.82;102371.81;10322531;28;20389;-72
2021/10/18 10:59:33;;;;;;;0.10;0.10;;;;;;;14.29;72.40;102368.13;10322713;28;20064;-72
2021/10/18 11:04:34;;;;;;;0.10;0.10;;;;;;;14.31;72.23;102374.16;10321220;28;20041;-71
2021/10/18 11:09:49;;;;;;;0.10;0.10;;;;;;;14.22;71.70;102367.84;10318165;28;20019;-72
2021/10/18 11:14:50;;;;;;;0.10;0.10;;;;;;;14.09;71.92;102370.00;10285109;28;20034;-72
2021/10/18 11:20:05;;;;;;;0.10;0.10;;;;;;;13.98;73.95;102371.00;10317620;28;20410;-72
2021/10/18 11:25:10;;;;;;;0.10;0.10;;;;;;;13.85;72.09;102365.97;10326401;28;20021;-73
2021/10/18 11:30:13;;;;;;;0.10;0.10;;;;;;;13.77;74.95;102373.84;10325944;28;20525;-72
2021/10/18 11:35:17;;;;;;;0.10;0.10;;;;;;;13.73;74.56;102361.72;10323931;28;20025;-72
2021/10/18 11:40:21;;;;;;;0.00;0.00;;;;;;;13.75;74.70;102365.13;10330953;28;20482;-71
2021/10/18 11:45:23;;;;;;;;;;;;;;;13.76;75.23;102356.94;10318040;28;20118;-72
2021/10/18 11:50:25;;;;;;;0.10;0.10;;;;;;;13.76;74.67;102350.75;10328425;28;19980;-71
2021/10/18 11:55:31;;;;;;;0.10;0.10;;;;;;;13.72;73.15;102349.34;10332680;28;20029;-71
2021/10/18 12:00:41;;;;;;;0.03;0.03;;;;;;;13.73;76.10;102334.94;10331509;28;20026;-71
2021/10/18 12:05:48;;;;;;;0.10;0.10;;;;;;;13.77;74.86;102337.22;10330157;28;20061;-72
2021/10/18 12:10:50;;;;;;;0.00;0.00;;;;;;;13.85;76.57;102338.34;10330695;28;20023;-72
2021/10/18 12:15:52;;;;;;;0.10;0.10;;;;;;;13.92;74.50;102340.28;10328160;28;20536;-71
2021/10/18 12:20:58;;;;;;;0.00;0.00;;;;;;;14.01;74.05;102331.38;10324881;28;20065;-71
2021/10/18 12:26:14;;;;;;;0.00;0.00;;;;;;;14.14;74.71;102323.03;10306728;28;20026;-71
2021/10/18 12:31:31;;;;;;;0.10;0.10;;;;;;;14.30;75.12;102319.72;10326288;28;20073;-72
2021/10/18 12:36:32;;;;;;;0.10;0.10;;;;;;;14.46;74.79;102317.25;10311640;28;20031;-71
2021/10/18 12:41:41;;;;;;;0.10;0.10;;;;;;;14.58;72.31;102311.72;10321651;28;20055;-73
2021/10/18 12:46:41;;;;;;;0.10;0.10;;;;;;;14.64;73.59;102303.94;10325783;28;20535;-71
2021/10/18 12:51:47;;;;;;;0.10;0.10;;;;;;;14.66;73.38;102301.94;10329101;28;20015;-72
2021/10/18 12:57:01;;;;;;;0.05;0.05;;;;;;;14.62;73.17;102297.03;10329947;28;20379;-70
2021/10/18 13:02:17;;;;;;;0.10;0.10;;;;;;;14.59;73.49;102298.16;10318741;28;20086;-73
2021/10/18 13:07:17;;;;;;;0.10;0.10;;;;;;;14.55;74.24;102299.47;10353686;28;20091;-72
2021/10/18 13:12:18;;;;;;;0.10;0.10;;;;;;;14.54;74.44;102275.47;10370207;28;20018;-72
2021/10/18 13:17:18;;;;;;;0.10;0.10;;;;;;;14.48;74.71;102292.97;10371581;28;20059;-72
2021/10/18 13:22:19;;;;;;;0.10;0.10;;;;;;;14.43;74.41;102282.69;10371176;28;20026;-72
2021/10/18 13:27:20;;;;;;;0.10;0.10;;;;;;;14.38;74.92;102273.41;10371619;28;20536;-71
2021/10/18 13:32:20;;;;;;;0.10;0.10;;;;;;;14.31;74.88;102254.41;10351643;28;20197;-72
2021/10/18 13:37:20;;;;;;;0.10;0.10;;;;;;;14.22;73.52;102249.91;10357592;28;20156;-71
2021/10/18 13:42:21;;;;;;;0.00;0.00;;;;;;;14.16;75.38;102245.16;10370404;28;20280;-71
2021/10/18 13:47:22;;;;;;;0.10;0.10;;;;;;;14.14;75.43;102236.44;10370317;28;20080;-72
2021/10/18 13:52:22;;;;;;;0.10;0.10;;;;;;;14.01;74.04;102218.00;10370250;28;20266;-71
2021/10/18 13:57:25;;;;;;;0.00;0.00;;;;;;;13.94;74.33;102217.75;10369660;28;20112;-72
2021/10/18 14:02:26;;;;;;;0.10;0.10;;;;;;;13.85;75.31;102218.66;10356041;28;20033;-71
2021/10/18 14:07:26;;;;;;;0.00;0.00;;;;;;;13.81;76.71;102235.97;10327236;28;20041;-71
2021/10/18 14:12:26;;;;;;;0.08;0.08;;;;;;;13.81;78.03;102249.38;10328997;28;20022;-72
2021/10/18 14:17:27;;;;;;;0.00;0.00;;;;;;;13.78;77.86;102255.88;10328718;28;20018;-72
2021/10/18 14:22:27;;;;;;;0.00;0.00;;;;;;;13.75;77.76;102256.16;10328697;28;20045;-71
2021/10/18 14:27:27;;;;;;;0.10;0.10;;;;;;;13.73;78.22;102266.19;10328315;28;20018;-71
2021/10/18 14:32:28;;;;;;;0.10;0.10;;;;;;;13.68;77.05;102241.66;10327926;28;20728;-71
2021/10/18 14:37:28;;;;;;;0.10;0.10;;;;;;;13.64;78.78;102242.94;10328174;28;20026;-72
2021/10/18 14:42:28;;;;;;;0.10;0.10;;;;;;;13.57;77.53;102240.00;10328360;28;20111;-71
2021/10/18 14:47:29;;;;;;;0.10;0.10;;;;;;;13.53;79.43;102246.66;10326337;28;20057;-71
2021/10/18 14:52:30;;;;;;;0.10;0.10;;;;;;;13.45;78.10;102251.03;10328074;28;20022;-72
2021/10/18 14:57:31;;;;;;;0.10;0.10;;;;;;;13.30;77.59;102245.28;10327505;28;20452;-71
2021/10/18 15:02:33;;;;;;;0.10;0.10;;;;;;;13.14;77.84;102243.13;10327364;28;20080;-71
2021/10/18 15:07:33;;;;;;;0.10;0.10;;;;;;;13.02;78.95;102237.06;10327451;28;20038;-71
2021/10/18 15:12:34;;;;;;;0.10;0.10;;;;;;;12.92;79.83;102236.25;10332599;28;20019;-72
2021/10/18 15:17:34;;;;;;;0.10;0.10;;;;;;;12.83;80.92;102245.09;10334227;28;20038;-71
2021/10/18 15:22:35;;;;;;;0.00;0.00;;;;;;;12.70;81.43;102245.34;10335351;28;20018;-72
2021/10/18 15:27:35;;;;;;;0.00;0.00;;;;;;;12.55;81.34;102241.38;10334922;28;20081;-71
2021/10/18 15:32:36;;;;;;;0.00;0.00;;;;;;;12.45;82.63;102249.41;10334868;28;20019;-72
2021/10/18 15:37:37;;;;;;;0.10;0.10;;;;;;;12.33;83.11;102243.28;10371415;28;20033;-71
2021/10/18 15:42:38;;;;;;;0.10;0.10;;;;;;;12.22;82.44;102230.91;10375581;28;20090;-71
2021/10/18 15:47:41;;;;;;;0.10;0.10;;;;;;;12.07;82.65;102223.38;10374617;28;20054;-72
2021/10/18 15:52:41;;;;;;;0.10;0.10;;;;;;;11.96;82.60;102230.50;10374256;28;20793;-71
2021/10/18 15:57:42;;;;;;;0.10;0.10;;;;;;;11.82;83.28;102224.66;10374412;28;20036;-71
2021/10/18 16:02:42;;;;;;;0.10;0.10;;;;;;;11.70;83.37;102223.91;10359952;28;20033;-71
2021/10/18 16:07:43;;;;;;;0.10;0.10;;;;;;;11.60;83.29;102215.81;10331945;28;21019;-71
2021/10/18 16:12:43;;;;;;;0.00;0.00;;;;;;;11.53;82.48;102202.16;10332470;28;20025;-72
2021/10/18 16:17:44;;;;;;;0.00;0.00;;;;;;;11.49;82.78;102215.88;10332874;28;20378;-72
2021/10/18 16:22:45;;;;;;;0.10;0.10;;;;;;;11.42;83.25;102198.72;10333146;28;20030;-71
2021/10/18 16:27:45;;;;;;;0.10;0.10;;;;;;;11.33;83.48;102206.53;10332711;28;20380;-71
2021/10/18 16:32:46;;;;;;;0.10;0.10;;;;;;;11.28;83.66;102218.56;10332980;28;20019;-71
2021/10/18 16:37:46;;;;;;;0.10;0.10;;;;;;;11.22;84.48;102217.25;10328703;28;20026;-72
2021/10/18 16:42:46;;;;;;;0.10;0.10;;;;;;;11.19;84.11;102203.34;10332492;28;20509;-71
2021/10/18 16:47:47;;;;;;;0.10;0.10;;;;;;;11.18;83.84;102209.66;10332033;28;20037;-72
2021/10/18 16:52:48;;;;;;;0.10;0.10;;;;;;;11.17;83.61;102199.94;10332315;28;20106;-71
2021/10/18 16:57:48;;;;;;;0.10;0.10;;;;;;;11.16;83.08;102201.78;10331272;28;20293;-71
2021/10/18 17:02:49;;;;;;;0.10;0.10;;;;;;;11.06;83.42;102200.88;10298688;28;20054;-71
2021/10/18 17:07:49;;;;;;;0.10;0.10;;;;;;;10.95;83.88;102206.25;10327389;28;20488;-71
2021/10/18 17:12:50;;;;;;;0.10;0.10;;;;;;;10.83;84.20;102214.28;10314462;28;20478;-71
2021/10/18 17:17:50;;;;;;;0.10;0.10;;;;;;;10.70;85.48;102218.09;10322769;28;20077;-71
2021/10/18 17:22:50;;;;;;;0.10;0.10;;;;;;;10.63;85.70;102239.06;10329762;28;20072;-71
2021/10/18 17:27:51;;;;;;;0.10;0.10;;;;;;;10.56;86.55;102248.53;10329699;28;20049;-72
2021/10/18 17:32:51;;;;;;;0.10;0.10;;;;;;;10.49;86.92;102253.50;10297531;28;20019;-72
2021/10/18 17:37:52;;;;;;;0.10;0.10;;;;;;;10.47;87.39;102260.78;10310209;28;20026;-71
2021/10/18 17:42:52;;;;;;;0.10;0.10;;;;;;;10.47;88.18;102255.47;10328638;28;20105;-71
2021/10/18 17:47:53;;;;;;;0.10;0.10;;;;;;;10.41;88.95;102259.47;10328448;28;20109;-72
2021/10/18 17:52:55;;;;;;;0.10;0.10;;;;;;;10.36;89.16;102266.97;10316386;28;20030;-71
2021/10/18 17:57:55;;;;;;;0.05;0.05;;;;;;;10.35;88.97;102275.91;10305771;28;20081;-71
2021/10/18 18:02:55;;;;;;;0.00;0.00;;;;;;;10.34;88.84;102270.72;10286596;28;20031;-71
2021/10/18 18:07:56;;;;;;;0.00;0.00;;;;;;;10.40;87.68;102244.44;10301923;28;20522;-72
2021/10/18 18:12:56;;;;;;;0.10;0.10;;;;;;;10.50;86.97;102233.03;10307325;28;20070;-71
2021/10/18 18:17:58;;;;;;;0.10;0.10;;;;;;;10.56;86.64;102203.22;10324601;28;20026;-71
2021/10/18 18:22:58;;;;;;;0.00;0.00;;;;;;;10.59;86.69;102189.69;10327506;28;20030;-72
2021/10/18 18:27:59;;;;;;;0.10;0.10;;;;;;;10.57;86.89;102187.13;10327199;28;20110;-71
2021/10/18 18:33:00;;;;;;;0.10;0.10;;;;;;;10.52;87.06;102184.00;10327167;28;20265;-72
2021/10/18 18:38:02;;;;;;;0.10;0.10;;;;;;;10.49;87.15;102191.38;10324974;28;20072;-71
2021/10/18 18:43:02;;;;;;;0.10;0.10;;;;;;;10.45;87.32;102203.28;10324873;28;20513;-71
2021/10/18 18:48:04;;;;;;;0.10;0.10;;;;;;;10.42;87.66;102205.22;10335920;28;20068;-71
2021/10/18 18:53:04;;;;;;;0.10;0.10;;;;;;;10.38;88.20;102203.78;10339651;28;20533;-71
2021/10/18 18:58:04;;;;;;;0.10;0.10;;;;;;;10.35;88.14;102197.84;10336306;28;20014;-73
2021/10/18 19:03:05;;;;;;;0.10;0.10;;;;;;;10.31;88.49;102202.56;10339643;28;20288;-73
2021/10/18 19:13:13;;;;;;;0.10;0.10;;;;;;;10.16;88.98;102187.81;10293075;28;20124;-67
2021/10/18 19:18:14;;;;;;;0.10;0.10;;;;;;;10.11;88.90;102206.78;10291971;28;20102;-68
2021/10/18 19:23:14;;;;;;;0.10;0.10;;;;;;;10.04;89.22;102188.78;10297674;28;20180;-68
2021/10/18 19:28:14;;;;;;;0.10;0.10;;;;;;;9.97;89.37;102181.25;10294614;28;20114;-67
2021/10/18 19:33:15;;;;;;;0.00;0.00;;;;;;;9.94;89.29;102170.03;10294639;28;20433;-68
2021/10/18 19:38:15;;;;;;;0.00;0.00;;;;;;;9.89;89.64;102159.75;10295571;28;20113;-68
2021/10/18 19:43:15;;;;;;;0.10;0.10;;;;;;;9.82;89.75;102168.34;10295497;28;20298;-68
2021/10/18 19:48:16;;;;;;;0.10;0.10;;;;;;;9.78;90.09;102177.53;10293985;28;20031;-68
2021/10/18 19:53:16;;;;;;;0.10;0.10;;;;;;;9.84;89.63;102164.59;10295737;28;20475;-68
2021/10/18 19:58:17;;;;;;;0.10;0.10;;;;;;;9.88;89.55;102162.53;10291829;28;20086;-68
2021/10/18 20:03:18;;;;;;;0.00;0.00;;;;;;;9.87;90.11;102150.19;10288309;28;20757;-67
2021/10/18 20:08:18;;;;;;;0.00;0.00;;;;;;;9.86;90.12;102143.16;10288410;28;20193;-68
2021/10/18 20:13:18;;;;;;;0.10;0.10;;;;;;;9.85;89.99;102137.00;10287093;28;20355;-68
2021/10/18 20:18:19;;;;;;;0.10;0.10;;;;;;;9.84;89.50;102145.97;10287765;28;20109;-68
2021/10/18 20:23:19;;;;;;;0.10;0.10;;;;;;;9.86;89.52;102130.72;10287904;28;20494;-68
2021/10/18 20:28:19;;;;;;;0.10;0.10;;;;;;;9.83;89.56;102133.63;10287849;28;20493;-68
2021/10/18 20:33:19;;;;;;;0.10;0.10;;;;;;;9.77;90.26;102139.41;10284573;28;20709;-68
2021/10/18 20:38:20;;;;;;;0.00;0.00;;;;;;;9.75;90.10;102138.72;10287072;28;20030;-68
2021/10/18 20:43:20;;;;;;;0.10;0.10;;;;;;;9.68;91.16;102148.97;10287358;28;20027;-69
2021/10/18 20:48:21;;;;;;;0.10;0.10;;;;;;;9.65;91.25;102130.59;10286949;28;20090;-69
2021/10/18 20:53:21;;;;;;;0.10;0.10;;;;;;;9.61;91.58;102134.47;10286849;28;20572;-68
2021/10/18 20:58:24;;;;;;;0.00;0.00;;;;;;;9.56;91.93;102117.19;10287154;28;20038;-68
2021/10/18 21:03:26;;;;;;;0.10;0.10;;;;;;;9.49;92.16;102143.44;10284329;28;20030;-68
2021/10/18 21:08:26;;;;;;;0.00;0.00;;;;;;;9.42;92.06;102150.19;10286136;28;20092;-68
2021/10/18 21:13:27;;;;;;;0.00;0.00;;;;;;;9.35;92.55;102147.16;10286722;28;20381;-68
2021/10/18 21:18:27;;;;;;;0.00;0.00;;;;;;;9.29;93.15;102129.88;10283706;28;20027;-69
2021/10/18 21:23:27;;;;;;;0.00;0.00;;;;;;;9.30;92.99;102112.09;10286127;28;20365;-68
2021/10/18 21:28:28;;;;;;;0.10;0.10;;;;;;;9.34;92.46;102086.97;10286285;28;20019;-68
2021/10/18 21:33:29;;;;;;;0.10;0.10;;;;;;;9.41;92.44;102056.25;10282867;28;20352;-68
2021/10/18 21:38:29;;;;;;;0.00;0.00;;;;;;;9.44;91.66;102077.28;10285033;28;20258;-68
2021/10/18 21:43:29;;;;;;;0.05;0.05;;;;;;;9.48;91.64;102093.84;10285633;28;20386;-69
2021/10/18 21:48:30;;;;;;;0.10;0.10;;;;;;;9.46;91.76;102115.25;10285302;28;20022;-69
2021/10/18 21:53:30;;;;;;;0.00;0.00;;;;;;;9.44;91.83;102162.41;10284914;28;20760;-69
2021/10/18 21:58:30;;;;;;;0.00;0.00;;;;;;;9.42;92.34;102168.78;10284520;28;20110;-69
2021/10/18 22:03:31;;;;;;;0.00;0.00;;;;;;;9.35;92.15;102172.91;10282510;28;20029;-68
2021/10/18 22:08:31;;;;;;;0.00;0.00;;;;;;;9.25;92.46;102159.44;10283961;28;20026;-69
2021/10/18 22:13:32;;;;;;;0.08;0.08;;;;;;;9.18;93.39;102132.50;10284332;28;20018;-69
2021/10/18 22:18:32;;;;;;;0.00;0.00;;;;;;;9.17;93.19;102093.59;10284043;28;20046;-69
2021/10/18 22:23:32;;;;;;;0.10;0.10;;;;;;;9.11;93.42;102093.25;10283387;28;20015;-69
2021/10/18 22:28:33;;;;;;;0.00;0.00;;;;;;;9.07;94.00;102104.09;10283571;28;20382;-69
2021/10/18 22:33:33;;;;;;;0.10;0.10;;;;;;;9.06;93.61;102102.41;10283525;28;20377;-68
2021/10/18 22:38:34;;;;;;;0.10;0.10;;;;;;;9.05;94.10;102124.63;10283804;28;20117;-69
2021/10/18 22:43:34;;;;;;;0.00;0.00;;;;;;;9.04;93.68;102130.88;10283296;28;20304;-69
2021/10/18 22:48:36;;;;;;;0.10;0.10;;;;;;;9.02;94.31;102124.88;10283510;28;20051;-69
2021/10/18 22:53:36;;;;;;;0.10;0.10;;;;;;;9.02;94.25;102121.38;10283603;28;20437;-69
2021/10/18 22:58:36;;;;;;;0.05;0.05;;;;;;;9.02;94.75;102100.94;10283625;28;20041;-69
2021/10/18 23:03:37;;;;;;;0.00;0.00;;;;;;;9.03;94.48;102084.03;10281851;28;20453;-69
2021/10/18 23:08:37;;;;;;;0.10;0.10;;;;;;;9.04;94.67;102088.38;10283293;28;20737;-69
2021/10/18 23:13:37;;;;;;;0.00;0.00;;;;;;;9.02;93.80;102082.34;10283620;28;20011;-69
2021/10/18 23:18:38;;;;;;;0.00;0.00;;;;;;;9.02;94.02;102063.75;10283033;28;20039;-69
2021/10/18 23:23:38;;;;;;;0.00;0.00;;;;;;;9.02;93.88;102065.56;10283157;28;20030;-68
2021/10/18 23:28:38;;;;;;;0.10;0.10;;;;;;;8.99;93.97;102063.97;10283051;28;20065;-69
2021/10/18 23:33:40;;;;;;;0.10;0.10;;;;;;;8.96;93.63;102058.91;10285094;28;20031;-69
2021/10/18 23:38:40;;;;;;;0.10;0.10;;;;;;;8.95;93.97;102054.53;10290265;28;20350;-69
2021/10/18 23:43:42;;;;;;;0.10;0.10;;;;;;;8.96;93.87;102056.25;10289945;28;20019;-69
2021/10/18 23:48:42;;;;;;;0.00;0.00;;;;;;;8.95;93.56;102054.53;10282134;28;21393;-69
2021/10/18 23:53:42;;;;;;;0.00;0.00;;;;;;;8.95;93.58;102041.25;10284868;28;20025;-69
2021/10/18 23:58:43;;;;;;;0.10;0.10;;;;;;;8.96;94.23;102048.28;10289295;28;20266;-69
